createdAt,value
2018-11-13T00:00:18.509Z,131.33
2018-11-13T00:02:47.667Z,129.57
2018-11-13T00:05:16.555Z,123.97
2018-11-13T00:07:45.553Z,129.90
2018-11-13T00:10:14.585Z,121.30
2018-11-13T00:12:43.538Z,122.23
2018-11-13T00:15:12.907Z,116.70
2018-11-13T00:17:41.807Z,132.40
2018-11-13T00:20:13.292Z,118.23
2018-11-13T00:22:42.923Z,124.20
2018-11-13T00:25:12.893Z,120.50
2018-11-13T00:27:42.431Z,117.47
2018-11-13T00:30:15.336Z,116.93
2018-11-13T00:32:44.833Z,120.17
2018-11-13T00:35:14.615Z,127.27
2018-11-13T00:37:44.107Z,127.93
2018-11-13T00:40:14.294Z,117.77
2018-11-13T00:42:44.288Z,118.00
2018-11-13T00:45:13.222Z,111.10
2018-11-13T00:47:42.198Z,112.83
2018-11-13T00:50:14.142Z,111.23
2018-11-13T00:52:43.955Z,107.80
2018-11-13T00:55:12.922Z,109.17
2018-11-13T00:57:42.625Z,104.20
2018-11-13T01:00:13.662Z,110.60
2018-11-13T01:02:42.836Z,106.23
2018-11-13T01:05:13.475Z,102.17
2018-11-13T01:07:43.386Z,103.20
2018-11-13T01:10:13.892Z,105.37
2018-11-13T01:12:43.918Z,105.60
2018-11-13T01:15:15.046Z,102.13
2018-11-13T01:17:44.758Z,100.53
2018-11-13T01:20:14.372Z,101.63
2018-11-13T01:22:43.291Z,103.47
2018-11-13T01:25:13.199Z,98.63
2018-11-13T01:27:42.650Z,94.23
2018-11-13T01:30:12.464Z,91.47
2018-11-13T01:32:42.288Z,91.23
2018-11-13T01:35:13.287Z,86.80
2018-11-13T01:37:42.254Z,85.03
2018-11-13T01:40:14.633Z,85.77
2018-11-13T01:42:43.750Z,89.83
2018-11-13T01:45:13.862Z,84.77
2018-11-13T01:47:42.767Z,89.57
2018-11-13T01:50:12.269Z,88.17
2018-11-13T01:52:41.216Z,92.83
2018-11-13T01:55:12.018Z,88.90
2018-11-13T01:57:40.986Z,92.67
2018-11-13T02:00:17.425Z,79.40
2018-11-13T02:02:47.597Z,90.33
2018-11-13T02:05:17.452Z,82.60
2018-11-13T02:07:46.358Z,81.97
2018-11-13T02:10:15.859Z,80.30
2018-11-13T02:12:44.942Z,78.47
2018-11-13T02:15:13.852Z,74.07
2018-11-13T02:17:42.766Z,85.40
2018-11-13T02:20:14.474Z,82.20
2018-11-13T02:22:43.778Z,85.73
2018-11-13T02:25:14.113Z,81.47
2018-11-13T02:27:43.356Z,80.27
2018-11-13T02:30:14.541Z,89.10
2018-11-13T02:32:44.219Z,83.90
2018-11-13T02:35:13.630Z,85.77
2018-11-13T02:37:42.825Z,86.53
2018-11-13T02:40:11.817Z,80.23
2018-11-13T02:42:40.704Z,81.83
2018-11-13T02:45:15.955Z,84.53
2018-11-13T02:47:44.887Z,89.00
2018-11-13T02:50:16.014Z,86.23
2018-11-13T02:52:44.896Z,82.53
2018-11-13T02:55:14.172Z,78.53
2018-11-13T02:57:43.822Z,75.93
2018-11-13T03:00:15.632Z,78.60
2018-11-13T03:02:44.582Z,80.40
2018-11-13T03:05:15.539Z,76.20
2018-11-13T03:07:44.461Z,84.90
2018-11-13T03:10:14.706Z,87.33
2018-11-13T03:12:44.255Z,79.60
2018-11-13T03:15:14.360Z,83.87
2018-11-13T03:17:43.382Z,87.67
2018-11-13T03:20:14.397Z,86.90
2018-11-13T03:22:44.003Z,94.03
2018-11-13T03:25:15.085Z,86.77
2018-11-13T03:27:44.020Z,95.93
2018-11-13T03:30:20.639Z,90.40
2018-11-13T03:32:49.563Z,93.20
2018-11-13T03:35:18.503Z,90.37
2018-11-13T03:37:47.433Z,98.63
2018-11-13T03:40:16.791Z,104.67
2018-11-13T03:42:46.648Z,91.57
2018-11-13T03:45:15.834Z,96.07
2018-11-13T03:47:44.795Z,101.77
2018-11-13T03:50:16.317Z,96.13
2018-11-13T03:52:45.491Z,89.50
2018-11-13T03:55:14.871Z,92.77
2018-11-13T03:57:44.881Z,97.90
2018-11-13T04:00:15.544Z,89.57
2018-11-13T04:02:44.534Z,97.67
2018-11-13T04:05:14.499Z,95.43
2018-11-13T04:07:44.876Z,90.70
2018-11-13T04:10:14.764Z,90.23
2018-11-13T04:12:43.997Z,95.00
2018-11-13T04:15:16.316Z,89.67
2018-11-13T04:17:45.211Z,91.17
2018-11-13T04:20:15.911Z,95.47
2018-11-13T04:22:45.155Z,91.97
2018-11-13T04:25:14.057Z,98.30
2018-11-13T04:27:42.944Z,88.40
2018-11-13T04:30:15.337Z,93.70
2018-11-13T04:32:44.355Z,101.87
2018-11-13T04:35:14.427Z,94.30
2018-11-13T04:37:43.391Z,95.33
2018-11-13T04:40:16.719Z,103.80
2018-11-13T04:42:52.901Z,100.53
2018-11-13T04:45:24.114Z,99.07
2018-11-13T04:47:53.561Z,94.83
2018-11-13T04:50:23.341Z,97.63
2018-11-13T04:52:52.236Z,91.37
2018-11-13T04:55:21.178Z,88.90
2018-11-13T04:57:50.742Z,98.97
2018-11-13T05:00:22.075Z,99.67
2018-11-13T05:02:51.049Z,95.87
2018-11-13T05:05:20.829Z,93.97
2018-11-13T05:07:51.076Z,93.17
2018-11-13T05:10:20.049Z,97.53
2018-11-13T05:12:49.432Z,93.73
2018-11-13T05:15:18.530Z,98.87
2018-11-13T05:17:47.832Z,101.50
2018-11-13T05:20:17.440Z,97.60
2018-11-13T05:22:46.364Z,88.13
2018-11-13T05:25:16.476Z,94.87
2018-11-13T05:27:45.394Z,100.17
2018-11-13T05:30:15.717Z,88.60
2018-11-13T05:32:44.639Z,88.30
2018-11-13T05:35:14.948Z,91.90
2018-11-13T05:37:44.788Z,85.83
2018-11-13T05:40:15.862Z,90.80
2018-11-13T05:42:44.786Z,85.80
2018-11-13T05:45:14.992Z,86.70
2018-11-13T05:47:44.107Z,114.47
2018-11-13T05:50:14.275Z,177.53
2018-11-13T05:52:44.072Z,137.13
2018-11-13T05:55:13.669Z,97.13
2018-11-13T05:57:42.534Z,90.83
2018-11-13T06:00:13.727Z,88.47
2018-11-13T06:02:42.606Z,94.00
2018-11-13T06:05:12.336Z,87.50
2018-11-13T06:07:41.528Z,92.80
2018-11-13T06:10:11.589Z,87.47
2018-11-13T06:12:40.544Z,87.00
2018-11-13T06:15:09.681Z,83.13
2018-11-13T06:17:38.629Z,90.60
2018-11-13T06:20:09.522Z,80.70
2018-11-13T06:22:38.587Z,85.80
2018-11-13T06:25:09.476Z,79.77
2018-11-13T06:27:38.497Z,83.90
2018-11-13T06:30:14.159Z,86.60
2018-11-13T06:32:45.308Z,82.20
2018-11-13T06:35:14.241Z,75.07
2018-11-13T06:37:43.142Z,76.03
2018-11-13T06:40:12.227Z,81.07
2018-11-13T06:42:41.591Z,78.77
2018-11-13T06:45:14.319Z,77.33
2018-11-13T06:47:44.106Z,75.10
2018-11-13T06:50:13.169Z,73.60
2018-11-13T06:52:42.513Z,77.47
2018-11-13T06:55:26.058Z,83.03
2018-11-13T06:57:55.004Z,75.30
2018-11-13T07:00:23.895Z,78.97
2018-11-13T07:02:52.933Z,73.37
2018-11-13T07:05:21.861Z,78.80
2018-11-13T07:07:50.833Z,76.87
2018-11-13T07:10:21.893Z,75.40
2018-11-13T07:12:51.692Z,72.77
2018-11-13T07:15:21.750Z,68.50
2018-11-13T07:17:52.637Z,73.67
2018-11-13T07:20:22.779Z,74.07
2018-11-13T07:22:51.667Z,71.93
2018-11-13T07:25:20.788Z,74.93
2018-11-13T07:27:49.748Z,73.80
2018-11-13T07:30:19.880Z,70.70
2018-11-13T07:32:48.856Z,71.33
2018-11-13T07:35:19.702Z,79.07
2018-11-13T07:37:52.017Z,70.77
2018-11-13T07:40:21.253Z,71.27
2018-11-13T07:42:50.336Z,69.67
2018-11-13T07:45:19.664Z,74.37
2018-11-13T07:47:48.916Z,72.17
2018-11-13T07:50:17.976Z,73.63
2018-11-13T07:52:47.058Z,66.07
2018-11-13T07:55:16.783Z,65.23
2018-11-13T07:57:45.859Z,68.37
2018-11-13T08:00:17.070Z,67.20
2018-11-13T08:02:47.626Z,71.27
2018-11-13T08:05:16.694Z,65.43
2018-11-13T08:07:45.697Z,68.20
2018-11-13T08:10:15.528Z,70.30
2018-11-13T08:12:44.622Z,71.17
2018-11-13T08:15:15.655Z,72.20
2018-11-13T08:17:44.686Z,62.43
2018-11-13T08:20:14.720Z,71.20
2018-11-13T08:22:44.138Z,62.97
2018-11-13T08:25:13.218Z,69.10
2018-11-13T08:27:42.878Z,70.60
2018-11-13T08:30:14.269Z,65.37
2018-11-13T08:32:43.828Z,68.00
2018-11-13T08:35:12.777Z,68.87
2018-11-13T08:37:41.732Z,67.87
2018-11-13T08:40:13.061Z,68.23
2018-11-13T08:42:42.640Z,70.97
2018-11-13T08:45:12.522Z,69.17
2018-11-13T08:47:41.876Z,68.50
2018-11-13T08:50:11.590Z,65.87
2018-11-13T08:52:40.992Z,62.53
2018-11-13T08:55:10.387Z,64.43
2018-11-13T08:57:39.417Z,63.70
2018-11-13T09:00:11.722Z,58.73
2018-11-13T09:02:41.281Z,58.80
2018-11-13T09:05:10.920Z,66.80
2018-11-13T09:07:40.454Z,64.10
2018-11-13T09:10:11.681Z,67.40
2018-11-13T09:12:41.736Z,57.23
2018-11-13T09:15:13.631Z,62.03
2018-11-13T09:17:42.964Z,60.20
2018-11-13T09:20:16.387Z,64.37
2018-11-13T09:22:45.456Z,62.80
2018-11-13T09:25:18.356Z,59.03
2018-11-13T09:27:47.410Z,68.20
2018-11-13T09:30:18.127Z,60.57
2018-11-13T09:32:47.461Z,61.87
2018-11-13T09:35:17.281Z,59.63
2018-11-13T09:37:46.301Z,60.07
2018-11-13T09:40:17.068Z,57.33
2018-11-13T09:42:47.294Z,59.10
2018-11-13T09:45:16.905Z,68.27
2018-11-13T09:47:45.983Z,69.07
2018-11-13T09:50:16.781Z,65.70
2018-11-13T09:52:46.970Z,63.33
2018-11-13T09:55:17.431Z,61.80
2018-11-13T09:57:46.491Z,59.30
2018-11-13T10:00:22.252Z,65.87
2018-11-13T10:02:54.379Z,69.13
2018-11-13T10:05:23.643Z,69.83
2018-11-13T10:07:53.237Z,71.07
2018-11-13T10:10:22.360Z,61.27
2018-11-13T10:12:51.384Z,65.03
2018-11-13T10:15:22.080Z,59.10
2018-11-13T10:17:51.262Z,65.83
2018-11-13T10:20:20.255Z,62.43
2018-11-13T10:22:50.701Z,57.70
2018-11-13T10:25:19.785Z,66.57
2018-11-13T10:27:48.942Z,61.87
2018-11-13T10:30:19.162Z,60.90
2018-11-13T10:32:48.756Z,61.60
2018-11-13T10:35:19.193Z,67.30
2018-11-13T10:37:48.255Z,71.50
2018-11-13T10:40:18.578Z,66.03
2018-11-13T10:42:47.610Z,65.70
2018-11-13T10:45:18.260Z,58.33
2018-11-13T10:47:47.330Z,61.07
2018-11-13T10:50:18.320Z,65.07
2018-11-13T10:52:47.403Z,66.67
2018-11-13T10:55:16.364Z,62.10
2018-11-13T10:57:45.408Z,58.93
2018-11-13T11:00:20.748Z,65.60
2018-11-13T11:02:54.984Z,62.13
2018-11-13T11:05:25.976Z,63.40
2018-11-13T11:07:55.421Z,67.87
2018-11-13T11:10:24.605Z,68.23
2018-11-13T11:12:53.658Z,81.90
2018-11-13T11:15:22.612Z,62.10
2018-11-13T11:17:51.684Z,59.90
2018-11-13T11:20:20.761Z,56.70
2018-11-13T11:22:49.866Z,59.03
2018-11-13T11:25:18.861Z,59.97
2018-11-13T11:27:47.866Z,58.43
2018-11-13T11:30:17.216Z,54.57
2018-11-13T11:32:46.271Z,60.57
2018-11-13T11:35:15.232Z,61.43
2018-11-13T11:37:44.255Z,56.67
2018-11-13T11:40:13.562Z,65.50
2018-11-13T11:42:42.557Z,59.83
2018-11-13T11:45:14.481Z,58.43
2018-11-13T11:47:44.123Z,66.67
2018-11-13T11:50:14.080Z,59.53
2018-11-13T11:52:43.139Z,66.93
2018-11-13T11:55:13.109Z,66.40
2018-11-13T11:57:42.198Z,76.97
2018-11-13T12:00:14.164Z,68.77
2018-11-13T12:02:43.187Z,66.00
2018-11-13T12:05:12.271Z,69.90
2018-11-13T12:07:41.275Z,71.07
2018-11-13T12:10:12.849Z,68.17
2018-11-13T12:12:41.935Z,61.20
2018-11-13T12:15:12.471Z,61.37
2018-11-13T12:17:41.464Z,66.90
2018-11-13T12:20:12.071Z,62.53
2018-11-13T12:22:41.074Z,59.77
2018-11-13T12:25:12.127Z,62.13
2018-11-13T12:27:41.566Z,69.37
2018-11-13T12:30:12.534Z,63.67
2018-11-13T12:32:41.524Z,61.77
2018-11-13T12:35:12.226Z,64.60
2018-11-13T12:37:41.198Z,59.63
2018-11-13T12:40:13.870Z,64.20
2018-11-13T12:42:43.384Z,61.23
2018-11-13T12:45:12.501Z,62.23
2018-11-13T12:47:42.214Z,70.27
2018-11-13T12:50:12.176Z,63.97
2018-11-13T12:52:41.227Z,69.30
2018-11-13T12:55:13.507Z,68.43
2018-11-13T12:57:42.448Z,67.17
2018-11-13T13:00:16.765Z,64.53
2018-11-13T13:02:45.744Z,69.90
2018-11-13T13:05:14.792Z,61.87
2018-11-13T13:07:43.849Z,59.57
2018-11-13T13:10:14.110Z,60.30
2018-11-13T13:12:43.156Z,65.77
2018-11-13T13:15:14.273Z,63.70
2018-11-13T13:17:43.859Z,62.43
2018-11-13T13:20:16.028Z,58.00
2018-11-13T13:22:46.130Z,63.30
2018-11-13T13:25:16.290Z,61.07
2018-11-13T13:27:45.275Z,56.80
2018-11-13T13:30:16.475Z,64.43
2018-11-13T13:32:46.212Z,54.87
2018-11-13T13:35:50.970Z,72.73
2018-11-13T13:38:20.041Z,59.03
2018-11-13T13:40:50.483Z,70.47
2018-11-13T13:43:20.161Z,57.50
2018-11-13T13:45:49.730Z,65.20
2018-11-13T13:48:21.331Z,62.87
2018-11-13T13:50:50.442Z,56.83
2018-11-13T13:53:20.036Z,58.87
2018-11-13T13:55:49.745Z,58.87
2018-11-13T13:58:19.600Z,62.10
2018-11-13T14:00:48.794Z,55.87
2018-11-13T14:03:18.205Z,56.70
2018-11-13T14:05:47.625Z,60.10
2018-11-13T14:08:17.583Z,60.17
2018-11-13T14:10:46.680Z,57.50
2018-11-13T14:13:16.094Z,69.60
2018-11-13T14:15:45.173Z,62.27
2018-11-13T14:18:14.481Z,92.00
2018-11-13T14:20:43.644Z,62.80
2018-11-13T14:23:14.847Z,72.80
2018-11-13T14:25:44.078Z,68.93
2018-11-13T14:28:13.215Z,70.77
2018-11-13T14:30:42.171Z,61.53
2018-11-13T14:33:12.584Z,64.73
2018-11-13T14:35:42.720Z,69.60
2018-11-13T14:38:12.137Z,63.77
2018-11-13T14:40:45.015Z,63.93
2018-11-13T14:43:14.564Z,63.23
2018-11-13T14:45:44.700Z,66.13
2018-11-13T14:48:13.917Z,65.33
2018-11-13T14:50:43.438Z,59.83
2018-11-13T14:53:13.531Z,64.83
2018-11-13T14:55:44.074Z,69.03
2018-11-13T14:58:14.152Z,72.73
2018-11-13T15:00:44.934Z,74.90
2018-11-13T15:03:16.561Z,70.40
2018-11-13T15:05:45.808Z,73.83
2018-11-13T15:08:15.205Z,71.93
2018-11-13T15:10:48.850Z,70.27
2018-11-13T15:13:18.576Z,71.40
2018-11-13T15:15:49.121Z,85.57
2018-11-13T15:18:18.268Z,87.03
2018-11-13T15:20:48.798Z,86.37
2018-11-13T15:23:17.788Z,76.20
2018-11-13T15:25:46.739Z,78.33
2018-11-13T15:28:16.005Z,78.63
2018-11-13T15:30:46.698Z,76.47
2018-11-13T15:33:20.057Z,76.23
2018-11-13T15:35:50.627Z,84.17
2018-11-13T15:38:20.830Z,86.20
2018-11-13T15:40:49.857Z,80.80
2018-11-13T15:43:18.854Z,81.57
2018-11-13T15:45:47.953Z,88.40
2018-11-13T15:48:17.408Z,82.17
2018-11-13T15:50:46.387Z,80.30
2018-11-13T15:53:15.745Z,78.77
2018-11-13T15:55:44.749Z,74.73
2018-11-13T15:58:14.811Z,78.23
2018-11-13T16:00:43.915Z,76.13
2018-11-13T16:03:17.889Z,76.43
2018-11-13T16:05:49.050Z,81.37
2018-11-13T16:08:18.100Z,79.40
2018-11-13T16:10:47.422Z,79.37
2018-11-13T16:13:17.531Z,77.10
2018-11-13T16:15:46.772Z,82.87
2018-11-13T16:18:18.499Z,75.20
2018-11-13T16:20:47.553Z,81.00
2018-11-13T16:23:17.230Z,80.23
2018-11-13T16:25:46.345Z,80.97
2018-11-13T16:28:15.459Z,79.13
2018-11-13T16:30:44.680Z,80.83
2018-11-13T16:33:13.690Z,85.57
2018-11-13T16:35:42.842Z,80.83
2018-11-13T16:38:12.841Z,85.97
2018-11-13T16:40:41.879Z,80.03
2018-11-13T16:43:10.881Z,77.60
2018-11-13T16:45:39.773Z,80.13
2018-11-13T16:48:09.745Z,79.37
2018-11-13T16:50:40.256Z,76.33
2018-11-13T16:53:10.915Z,79.57
2018-11-13T16:55:45.220Z,79.27
2018-11-13T16:58:17.337Z,79.87
2018-11-13T17:00:47.155Z,81.53
2018-11-13T17:03:16.477Z,77.07
2018-11-13T17:05:48.463Z,80.63
2018-11-13T17:08:19.998Z,73.43
2018-11-13T17:10:49.918Z,86.07
2018-11-13T17:13:21.598Z,80.50
2018-11-13T17:15:50.740Z,91.50
2018-11-13T17:18:20.573Z,118.20
2018-11-13T17:20:49.678Z,92.03
2018-11-13T17:23:18.672Z,89.63
2018-11-13T17:25:47.731Z,87.23
2018-11-13T17:28:16.853Z,84.63
2018-11-13T17:30:46.425Z,79.13
2018-11-13T17:33:15.845Z,79.10
2018-11-13T17:35:45.005Z,84.33
2018-11-13T17:38:14.098Z,79.03
2018-11-13T17:40:43.054Z,80.47
2018-11-13T17:43:12.027Z,79.47
2018-11-13T17:45:41.909Z,83.83
2018-11-13T17:48:12.834Z,80.30
2018-11-13T17:50:43.146Z,81.60
2018-11-13T17:53:12.756Z,91.60
2018-11-13T17:55:42.232Z,96.13
2018-11-13T17:58:12.967Z,81.70
2018-11-13T18:00:43.239Z,84.83
2018-11-13T18:03:14.171Z,82.57
2018-11-13T18:05:43.752Z,84.03
2018-11-13T18:08:13.344Z,87.80
2018-11-13T18:10:44.395Z,82.40
2018-11-13T18:13:13.400Z,89.20
2018-11-13T18:15:42.375Z,87.30
2018-11-13T18:18:11.396Z,95.10
2018-11-13T18:20:41.379Z,94.87
2018-11-13T18:23:10.892Z,94.57
2018-11-13T18:25:39.902Z,107.07
2018-11-13T18:28:09.391Z,104.03
2018-11-13T18:30:38.962Z,99.80
2018-11-13T18:33:08.672Z,99.93
2018-11-13T18:35:39.098Z,78.87
2018-11-13T18:38:10.078Z,83.93
2018-11-13T18:40:43.789Z,81.30
2018-11-13T18:43:12.769Z,85.43
2018-11-13T18:45:42.370Z,75.87
2018-11-13T18:48:11.434Z,69.40
2018-11-13T18:50:43.021Z,64.93
2018-11-13T18:53:12.123Z,59.57
2018-11-13T18:55:41.133Z,56.17
2018-11-13T18:58:10.101Z,55.37
2018-11-13T19:00:40.655Z,50.87
2018-11-13T19:03:11.083Z,55.93
2018-11-13T19:05:40.186Z,48.37
2018-11-13T19:08:09.513Z,48.20
2018-11-13T19:10:41.325Z,47.30
2018-11-13T19:13:12.408Z,48.67
2018-11-13T19:15:43.191Z,45.40
2018-11-13T19:18:12.621Z,39.97
2018-11-13T19:20:41.833Z,35.10
2018-11-13T19:23:10.755Z,32.07
2018-11-13T19:25:40.292Z,33.83
2018-11-13T19:28:09.360Z,33.07
2018-11-13T19:30:38.359Z,31.53
2018-11-13T19:33:07.335Z,28.93
2018-11-13T19:35:36.717Z,31.73
2018-11-13T19:38:05.993Z,28.00
2018-11-13T19:40:35.649Z,25.10
2018-11-13T19:43:06.156Z,24.40
2018-11-13T19:45:35.333Z,25.33
2018-11-13T19:48:04.636Z,31.23
2018-11-13T19:50:34.970Z,26.37
2018-11-13T19:53:04.075Z,26.30
2018-11-13T19:55:33.791Z,27.03
2018-11-13T19:58:02.787Z,28.90
2018-11-13T20:00:33.192Z,28.70
2018-11-13T20:03:03.449Z,27.97
2018-11-13T20:05:33.080Z,37.67
2018-11-13T20:08:03.421Z,34.43
2018-11-13T20:10:33.610Z,30.97
2018-11-13T20:13:03.908Z,27.83
2018-11-13T20:15:34.414Z,31.03
2018-11-13T20:18:03.520Z,31.93
2018-11-13T20:20:33.623Z,30.67
2018-11-13T20:23:04.000Z,48.77
2018-11-13T20:25:33.913Z,64.40
2018-11-13T20:28:03.276Z,39.63
2018-11-13T20:30:39.857Z,34.73
2018-11-13T20:33:08.901Z,33.37
2018-11-13T20:35:38.169Z,30.97
2018-11-13T20:38:07.796Z,33.17
2018-11-13T20:40:39.089Z,36.63
2018-11-13T20:43:10.563Z,34.77
2018-11-13T20:45:39.528Z,32.83
2018-11-13T20:48:08.630Z,30.80
2018-11-13T20:50:37.660Z,32.93
2018-11-13T20:53:06.838Z,41.77
2018-11-13T20:55:37.489Z,39.37
2018-11-13T20:58:07.045Z,41.90
2018-11-13T21:00:37.487Z,35.47
2018-11-13T21:03:07.196Z,30.60
2018-11-13T21:05:36.689Z,33.17
2018-11-13T21:08:05.877Z,34.73
2018-11-13T21:10:37.142Z,36.63
2018-11-13T21:13:06.496Z,28.07
2018-11-13T21:15:35.740Z,24.60
2018-11-13T21:18:04.838Z,29.23
2018-11-13T21:20:34.115Z,30.07
2018-11-13T21:23:03.280Z,28.77
2018-11-13T21:25:32.405Z,25.17
2018-11-13T21:28:02.490Z,28.97
2018-11-13T21:30:31.687Z,24.50
2018-11-13T21:33:00.730Z,28.23
2018-11-13T21:35:29.673Z,31.60
2018-11-13T21:37:58.888Z,28.20
2018-11-13T21:40:28.538Z,29.73
2018-11-13T21:42:58.109Z,27.67
2018-11-13T21:45:28.645Z,27.30
2018-11-13T21:47:58.837Z,23.27
2018-11-13T21:50:29.122Z,25.20
2018-11-13T21:52:58.263Z,24.43
2018-11-13T21:55:28.510Z,22.50
2018-11-13T21:57:57.528Z,25.37
2018-11-13T22:00:29.132Z,27.87
2018-11-13T22:02:59.472Z,28.40
2018-11-13T22:05:29.371Z,27.70
2018-11-13T22:07:58.299Z,29.17
2018-11-13T22:10:27.254Z,26.03
2018-11-13T22:12:56.243Z,28.10
2018-11-13T22:15:26.373Z,27.93
2018-11-13T22:17:55.241Z,26.57
2018-11-13T22:20:24.783Z,23.73
2018-11-13T22:22:55.121Z,29.47
2018-11-13T22:25:25.009Z,23.13
2018-11-13T22:27:55.354Z,24.70
2018-11-13T22:30:25.650Z,25.93
2018-11-13T22:32:54.636Z,29.53
2018-11-13T22:35:24.157Z,28.93
2018-11-13T22:37:53.212Z,26.07
2018-11-13T22:40:24.360Z,27.63
2018-11-13T22:42:53.404Z,27.77
2018-11-13T22:45:24.666Z,27.97
2018-11-13T22:47:53.902Z,27.27
2018-11-13T22:50:25.302Z,29.53
2018-11-13T22:52:54.853Z,28.43
2018-11-13T22:55:23.929Z,31.97
2018-11-13T22:57:55.001Z,29.77
2018-11-13T23:00:34.492Z,30.93
2018-11-13T23:03:03.473Z,38.47
2018-11-13T23:05:32.432Z,34.83
2018-11-13T23:08:01.509Z,36.80
2018-11-13T23:10:30.437Z,30.87
2018-11-13T23:12:59.526Z,26.50
2018-11-13T23:15:28.731Z,27.67
2018-11-13T23:17:57.741Z,32.30
2018-11-13T23:20:26.743Z,28.13
2018-11-13T23:22:55.730Z,28.73
2018-11-13T23:25:24.779Z,32.00
2018-11-13T23:27:53.898Z,28.60
2018-11-13T23:30:24.239Z,36.90
2018-11-13T23:32:53.649Z,35.07
2018-11-13T23:35:22.749Z,30.73
2018-11-13T23:37:54.094Z,26.63
2018-11-13T23:40:26.150Z,27.77
2018-11-13T23:42:55.251Z,26.57
2018-11-13T23:45:25.260Z,27.40
2018-11-13T23:47:54.379Z,25.90
2018-11-13T23:50:23.602Z,28.83
2018-11-13T23:52:52.914Z,28.93
2018-11-13T23:55:22.258Z,29.13
2018-11-13T23:57:51.255Z,31.87
